createdAt,value
2018-04-24T00:00:51.153Z,91.50
2018-04-24T00:01:51.155Z,90.50
2018-04-24T00:02:51.150Z,90.83
2018-04-24T00:03:51.149Z,90.36
2018-04-24T00:04:51.147Z,90.59
2018-04-24T00:05:51.147Z,90.88
2018-04-24T00:06:51.147Z,91.55
2018-04-24T00:07:51.143Z,90.98
2018-04-24T00:08:51.145Z,91.02
2018-04-24T00:09:51.160Z,91.46
2018-04-24T00:10:51.142Z,90.98
2018-04-24T00:11:51.163Z,90.98
2018-04-24T00:12:51.142Z,90.31
2018-04-24T00:13:51.136Z,90.59
2018-04-24T00:14:51.185Z,90.88
2018-04-24T00:15:51.138Z,90.88
2018-04-24T00:16:51.174Z,90.88
2018-04-24T00:17:51.133Z,90.31
2018-04-24T00:18:51.178Z,90.79
2018-04-24T00:19:51.131Z,90.69
2018-04-24T00:20:51.130Z,90.59
2018-04-24T00:21:51.127Z,90.69
2018-04-24T00:22:51.130Z,90.69
2018-04-24T00:23:51.136Z,90.59
2018-04-24T00:24:51.123Z,90.98
2018-04-24T00:25:51.120Z,91.64
2018-04-24T00:26:51.123Z,90.98
2018-04-24T00:27:51.119Z,90.59
2018-04-24T00:28:51.118Z,90.59
2018-04-24T00:29:51.116Z,90.41
2018-04-24T00:30:51.116Z,90.69
2018-04-24T00:31:51.120Z,89.83
2018-04-24T00:32:51.113Z,89.83
2018-04-24T00:33:51.124Z,90.50
2018-04-24T00:34:51.110Z,90.69
2018-04-24T00:35:51.113Z,91.07
2018-04-24T00:36:51.116Z,90.79
2018-04-24T00:37:51.107Z,90.41
2018-04-24T00:38:51.112Z,90.50
2018-04-24T00:39:51.118Z,90.50
2018-04-24T00:40:51.103Z,90.79
2018-04-24T00:41:51.101Z,90.59
2018-04-24T00:42:51.123Z,90.50
2018-04-24T00:43:51.099Z,90.31
2018-04-24T00:44:51.097Z,90.50
2018-04-24T00:45:51.146Z,90.31
2018-04-24T00:46:51.289Z,90.98
2018-04-24T00:47:51.097Z,90.79
2018-04-24T00:48:51.094Z,90.98
2018-04-24T00:49:51.091Z,91.17
2018-04-24T00:50:51.090Z,91.27
2018-04-24T00:51:51.092Z,91.64
2018-04-24T00:52:51.091Z,91.27
2018-04-24T00:53:51.106Z,91.36
2018-04-24T00:54:51.082Z,90.98
2018-04-24T00:55:51.084Z,90.88
2018-04-24T00:56:51.080Z,91.07
2018-04-24T00:57:51.080Z,90.69
2018-04-24T00:58:51.077Z,90.69
2018-04-24T00:59:51.075Z,90.22
2018-04-24T01:00:51.078Z,90.69
2018-04-24T01:01:51.078Z,90.59
2018-04-24T01:02:51.071Z,90.88
2018-04-24T01:03:51.070Z,90.22
2018-04-24T01:04:51.070Z,90.41
2018-04-24T01:05:51.070Z,90.50
2018-04-24T01:06:51.134Z,91.46
2018-04-24T01:07:51.065Z,91.17
2018-04-24T01:08:51.066Z,91.46
2018-04-24T01:09:51.060Z,90.98
2018-04-24T01:10:51.066Z,91.17
2018-04-24T01:11:51.060Z,90.88
2018-04-24T01:12:51.058Z,91.36
2018-04-24T01:13:51.059Z,91.46
2018-04-24T01:14:51.053Z,91.36
2018-04-24T01:15:51.051Z,91.36
2018-04-24T01:16:51.054Z,91.64
2018-04-24T01:17:51.669Z,91.36
2018-04-24T01:18:51.050Z,91.93
2018-04-24T01:19:51.048Z,91.93
2018-04-24T01:20:51.044Z,91.55
2018-04-24T01:21:51.043Z,91.60
2018-04-24T01:22:51.042Z,91.50
2018-04-24T01:23:51.043Z,91.17
2018-04-24T01:24:51.038Z,92.12
2018-04-24T01:25:51.038Z,91.46
2018-04-24T01:26:51.039Z,91.46
2018-04-24T01:27:51.034Z,91.50
2018-04-24T01:28:51.035Z,91.83
2018-04-24T01:29:51.029Z,91.93
2018-04-24T01:30:51.027Z,91.69
2018-04-24T01:31:51.031Z,91.50
2018-04-24T01:32:51.027Z,91.50
2018-04-24T01:33:51.023Z,91.50
2018-04-24T01:34:51.022Z,91.60
2018-04-24T01:35:51.021Z,91.74
2018-04-24T01:36:51.022Z,91.79
2018-04-24T01:37:51.015Z,91.60
2018-04-24T01:38:51.021Z,91.41
2018-04-24T01:39:51.017Z,91.88
2018-04-24T01:40:51.013Z,91.69
2018-04-24T01:41:51.029Z,91.41
2018-04-24T01:42:51.008Z,91.98
2018-04-24T01:43:51.008Z,91.69
2018-04-24T01:44:51.004Z,91.41
2018-04-24T01:45:51.004Z,91.50
2018-04-24T01:46:51.009Z,91.79
2018-04-24T01:47:50.998Z,91.50
2018-04-24T01:48:50.999Z,91.98
2018-04-24T01:49:50.995Z,91.69
2018-04-24T01:50:50.993Z,91.60
2018-04-24T01:51:50.991Z,91.50
2018-04-24T01:52:50.990Z,91.50
2018-04-24T01:53:50.990Z,91.50
2018-04-24T01:54:50.988Z,91.64
2018-04-24T01:55:50.985Z,91.64
2018-04-24T01:56:50.989Z,91.74
2018-04-24T01:57:50.981Z,91.98
2018-04-24T01:58:50.981Z,91.69
2018-04-24T01:59:50.978Z,91.79
2018-04-24T02:00:50.984Z,91.88
2018-04-24T02:01:50.979Z,91.46
2018-04-24T02:02:50.972Z,91.31
2018-04-24T02:03:50.990Z,91.98
2018-04-24T02:04:50.968Z,91.69
2018-04-24T02:05:50.966Z,91.60
2018-04-24T02:06:50.968Z,91.69
2018-04-24T02:07:50.963Z,91.69
2018-04-24T02:08:50.966Z,91.88
2018-04-24T02:09:50.959Z,91.69
2018-04-24T02:10:50.957Z,91.69
2018-04-24T02:11:50.962Z,91.69
2018-04-24T02:12:50.955Z,91.79
2018-04-24T02:13:50.956Z,92.08
2018-04-24T02:14:50.953Z,92.46
2018-04-24T02:15:50.948Z,92.55
2018-04-24T02:16:50.945Z,92.74
2018-04-24T02:17:50.946Z,92.08
2018-04-24T02:18:50.942Z,92.17
2018-04-24T02:19:50.942Z,91.93
2018-04-24T02:20:50.939Z,91.93
2018-04-24T02:21:50.936Z,91.64
2018-04-24T02:22:50.935Z,91.55
2018-04-24T02:23:50.933Z,91.74
2018-04-24T02:24:50.933Z,91.93
2018-04-24T02:25:50.935Z,91.55
2018-04-24T02:26:50.928Z,91.64
2018-04-24T02:27:50.929Z,91.55
2018-04-24T02:28:50.924Z,91.83
2018-04-24T02:29:50.925Z,92.50
2018-04-24T02:30:50.923Z,92.50
2018-04-24T02:31:50.929Z,92.32
2018-04-24T02:32:50.923Z,92.50
2018-04-24T02:33:50.917Z,92.03
2018-04-24T02:34:50.915Z,92.69
2018-04-24T02:35:50.914Z,92.22
2018-04-24T02:36:50.954Z,92.32
2018-04-24T02:37:50.916Z,93.46
2018-04-24T02:38:50.913Z,94.12
2018-04-24T02:39:50.911Z,93.55
2018-04-24T02:40:50.905Z,93.65
2018-04-24T02:41:50.907Z,92.12
2018-04-24T02:42:50.907Z,92.41
2018-04-24T02:43:50.902Z,92.50
2018-04-24T02:44:50.914Z,92.41
2018-04-24T02:45:50.897Z,92.50
2018-04-24T02:46:51.009Z,92.17
2018-04-24T02:47:50.894Z,92.27
2018-04-24T02:48:50.890Z,92.36
2018-04-24T02:49:50.890Z,92.55
2018-04-24T02:50:50.888Z,92.46
2018-04-24T02:51:50.889Z,93.41
2018-04-24T02:52:50.883Z,93.32
2018-04-24T02:53:50.881Z,93.32
2018-04-24T02:54:50.880Z,92.55
2018-04-24T02:55:50.878Z,92.27
2018-04-24T02:56:50.883Z,92.36
2018-04-24T02:57:50.874Z,92.08
2018-04-24T02:58:50.875Z,92.27
2018-04-24T02:59:50.874Z,92.27
2018-04-24T03:00:50.870Z,91.98
2018-04-24T03:01:50.867Z,93.51
2018-04-24T03:02:50.865Z,93.32
2018-04-24T03:03:50.867Z,93.88
2018-04-24T03:04:50.861Z,93.22
2018-04-24T03:05:50.859Z,92.84
2018-04-24T03:06:50.862Z,92.36
2018-04-24T03:07:50.856Z,92.36
2018-04-24T03:08:50.857Z,92.46
2018-04-24T03:09:50.852Z,93.03
2018-04-24T03:10:50.867Z,93.70
2018-04-24T03:11:50.934Z,94.74
2018-04-24T03:12:50.846Z,95.37
2018-04-24T03:13:50.844Z,95.61
2018-04-24T03:14:50.841Z,94.84
2018-04-24T03:15:50.840Z,94.46
2018-04-24T03:16:50.837Z,94.08
2018-04-24T03:17:50.835Z,93.32
2018-04-24T03:18:50.838Z,93.60
2018-04-24T03:19:50.831Z,94.17
2018-04-24T03:20:51.233Z,95.03
2018-04-24T03:21:50.829Z,95.12
2018-04-24T03:22:50.825Z,95.03
2018-04-24T03:23:50.825Z,96.13
2018-04-24T03:24:50.825Z,96.51
2018-04-24T03:25:50.821Z,96.80
2018-04-24T03:26:50.826Z,96.98
2018-04-24T03:27:50.826Z,97.08
2018-04-24T03:28:50.817Z,97.37
2018-04-24T03:29:50.815Z,96.17
2018-04-24T03:30:50.811Z,95.56
2018-04-24T03:31:50.809Z,95.22
2018-04-24T03:32:50.808Z,95.32
2018-04-24T03:33:50.805Z,95.51
2018-04-24T03:34:50.804Z,95.12
2018-04-24T03:35:50.801Z,95.22
2018-04-24T03:36:50.800Z,96.27
2018-04-24T03:37:50.799Z,96.84
2018-04-24T03:38:50.798Z,96.70
2018-04-24T03:39:50.793Z,96.56
2018-04-24T03:40:50.794Z,96.94
2018-04-24T03:41:50.794Z,96.84
2018-04-24T03:42:50.787Z,96.98
2018-04-24T03:43:50.787Z,97.03
2018-04-24T03:44:50.789Z,96.89
2018-04-24T03:45:50.784Z,96.13
2018-04-24T03:46:50.784Z,95.75
2018-04-24T03:47:50.779Z,95.27
2018-04-24T03:48:50.776Z,95.56
2018-04-24T03:49:50.773Z,95.75
2018-04-24T03:50:50.773Z,95.56
2018-04-24T03:51:51.619Z,95.08
2018-04-24T03:52:50.769Z,95.17
2018-04-24T03:53:50.767Z,94.12
2018-04-24T03:54:50.767Z,94.17
2018-04-24T03:55:50.765Z,94.74
2018-04-24T03:56:50.761Z,94.03
2018-04-24T03:57:50.764Z,94.41
2018-04-24T03:58:50.759Z,94.17
2018-04-24T03:59:50.755Z,95.27
2018-04-24T04:00:50.761Z,94.60
2018-04-24T04:01:50.751Z,94.70
2018-04-24T04:02:50.756Z,95.08
2018-04-24T04:03:50.747Z,95.08
2018-04-24T04:04:50.746Z,95.08
2018-04-24T04:05:50.745Z,94.70
2018-04-24T04:06:50.746Z,95.08
2018-04-24T04:07:50.741Z,94.89
2018-04-24T04:08:50.737Z,95.65
2018-04-24T04:09:50.740Z,95.46
2018-04-24T04:10:50.736Z,95.75
2018-04-24T04:11:50.733Z,95.65
2018-04-24T04:12:50.737Z,95.65
2018-04-24T04:13:50.743Z,95.84
2018-04-24T04:14:50.779Z,96.22
2018-04-24T04:15:50.742Z,96.51
2018-04-24T04:16:50.724Z,96.61
2018-04-24T04:17:50.725Z,96.80
2018-04-24T04:18:50.719Z,97.17
2018-04-24T04:19:50.719Z,96.89
2018-04-24T04:20:50.717Z,97.17
2018-04-24T04:21:50.724Z,97.27
2018-04-24T04:22:50.713Z,97.56
2018-04-24T04:23:50.712Z,97.75
2018-04-24T04:24:50.709Z,97.27
2018-04-24T04:25:50.722Z,97.56
2018-04-24T04:26:50.715Z,97.66
2018-04-24T04:27:50.704Z,97.85
2018-04-24T04:28:50.703Z,97.08
2018-04-24T04:29:50.703Z,96.03
2018-04-24T04:30:50.698Z,95.75
2018-04-24T04:31:50.699Z,95.27
2018-04-24T04:32:50.722Z,95.27
2018-04-24T04:33:50.695Z,94.41
2018-04-24T04:34:50.691Z,95.08
2018-04-24T04:35:50.689Z,94.84
2018-04-24T04:36:50.690Z,94.46
2018-04-24T04:37:50.693Z,95.08
2018-04-24T04:38:50.691Z,95.03
2018-04-24T04:39:50.683Z,94.37
2018-04-24T04:40:50.689Z,94.37
2018-04-24T04:41:50.680Z,94.41
2018-04-24T04:42:50.677Z,93.93
2018-04-24T04:43:50.679Z,94.12
2018-04-24T04:44:50.681Z,93.93
2018-04-24T04:45:50.680Z,94.22
2018-04-24T04:46:50.670Z,94.41
2018-04-24T04:47:50.676Z,94.46
2018-04-24T04:48:50.667Z,94.93
2018-04-24T04:49:50.681Z,95.17
2018-04-24T04:50:50.679Z,94.98
2018-04-24T04:51:50.663Z,95.27
2018-04-24T04:52:50.658Z,95.27
2018-04-24T04:53:50.657Z,95.56
2018-04-24T04:54:50.654Z,94.60
2018-04-24T04:55:50.653Z,94.32
2018-04-24T04:56:50.655Z,94.60
2018-04-24T04:57:50.653Z,94.74
2018-04-24T04:58:50.647Z,94.93
2018-04-24T04:59:50.645Z,95.08
2018-04-24T05:00:50.715Z,95.03
2018-04-24T05:01:50.644Z,95.03
2018-04-24T05:02:50.646Z,95.46
2018-04-24T05:03:50.638Z,95.84
2018-04-24T05:04:50.657Z,95.56
2018-04-24T05:05:50.634Z,95.75
2018-04-24T05:06:50.631Z,95.65
2018-04-24T05:07:50.631Z,96.22
2018-04-24T05:08:50.630Z,96.22
2018-04-24T05:09:50.627Z,95.94
2018-04-24T05:10:50.625Z,96.03
2018-04-24T05:11:50.624Z,95.84
2018-04-24T05:12:50.622Z,95.84
2018-04-24T05:13:50.619Z,95.75
2018-04-24T05:14:50.630Z,96.22
2018-04-24T05:15:50.615Z,96.03
2018-04-24T05:16:50.613Z,96.03
2018-04-24T05:17:50.620Z,95.56
2018-04-24T05:18:50.611Z,95.65
2018-04-24T05:19:50.609Z,95.17
2018-04-24T05:20:50.610Z,95.03
2018-04-24T05:21:50.726Z,95.41
2018-04-24T05:22:50.607Z,94.36
2018-04-24T05:23:50.777Z,94.36
2018-04-24T05:24:50.600Z,94.56
2018-04-24T05:25:50.600Z,94.65
2018-04-24T05:26:50.608Z,95.12
2018-04-24T05:27:50.599Z,94.56
2018-04-24T05:28:50.595Z,95.03
2018-04-24T05:29:50.593Z,95.12
2018-04-24T05:30:50.599Z,94.46
2018-04-24T05:31:50.590Z,94.93
2018-04-24T05:32:50.590Z,94.56
2018-04-24T05:33:50.604Z,94.65
2018-04-24T05:34:50.863Z,94.56
2018-04-24T05:35:50.699Z,94.74
2018-04-24T05:36:50.588Z,94.36
2018-04-24T05:37:50.587Z,94.56
2018-04-24T05:38:50.581Z,94.27
2018-04-24T05:39:50.583Z,94.74
2018-04-24T05:40:50.585Z,94.46
2018-04-24T05:41:50.602Z,94.65
2018-04-24T05:42:50.574Z,93.93
2018-04-24T05:43:50.577Z,94.31
2018-04-24T05:44:50.583Z,94.03
2018-04-24T05:45:50.576Z,93.36
2018-04-24T05:46:50.569Z,92.88
2018-04-24T05:47:50.569Z,93.07
2018-04-24T05:48:50.569Z,92.88
2018-04-24T05:49:50.565Z,92.79
2018-04-24T05:50:50.567Z,92.41
2018-04-24T05:51:50.564Z,92.60
2018-04-24T05:52:50.639Z,92.60
2018-04-24T05:53:50.562Z,91.83
2018-04-24T05:54:51.153Z,91.45
2018-04-24T05:55:50.562Z,92.07
2018-04-24T05:56:50.559Z,91.30
2018-04-24T05:57:50.560Z,91.40
2018-04-24T05:58:50.561Z,90.83
2018-04-24T05:59:50.556Z,90.73
2018-04-24T06:00:50.583Z,90.54
2018-04-24T06:01:50.557Z,89.97
2018-04-24T06:02:50.556Z,90.92
2018-04-24T06:03:50.553Z,90.83
2018-04-24T06:04:50.563Z,90.64
2018-04-24T06:05:50.554Z,91.02
2018-04-24T06:06:50.566Z,90.54
2018-04-24T06:07:50.551Z,90.73
2018-04-24T06:08:50.552Z,91.02
2018-04-24T06:09:50.560Z,90.83
2018-04-24T06:10:50.560Z,90.54
2018-04-24T06:11:50.550Z,90.45
2018-04-24T06:12:50.548Z,90.45
2018-04-24T06:13:50.548Z,90.54
2018-04-24T06:14:50.548Z,90.39
2018-04-24T06:15:50.545Z,90.88
2018-04-24T06:16:50.548Z,90.49
2018-04-24T06:17:50.543Z,90.39
2018-04-24T06:18:50.544Z,90.11
2018-04-24T06:19:50.546Z,90.01
2018-04-24T06:20:50.549Z,89.92
2018-04-24T06:21:50.542Z,89.63
2018-04-24T06:22:50.542Z,89.67
2018-04-24T06:23:50.545Z,89.82
2018-04-24T06:24:50.543Z,89.73
2018-04-24T06:25:50.542Z,89.15
2018-04-24T06:26:50.545Z,89.25
2018-04-24T06:27:50.544Z,89.34
2018-04-24T06:28:50.541Z,88.96
2018-04-24T06:29:50.615Z,89.06
2018-04-24T06:30:50.541Z,89.39
2018-04-24T06:31:50.539Z,89.01
2018-04-24T06:32:50.547Z,88.53
2018-04-24T06:33:50.539Z,88.62
2018-04-24T06:34:50.541Z,88.81
2018-04-24T06:35:50.539Z,88.72
2018-04-24T06:36:50.544Z,89.01
2018-04-24T06:37:50.539Z,88.62
2018-04-24T06:38:50.541Z,88.72
2018-04-24T06:39:50.538Z,88.53
2018-04-24T06:40:50.546Z,88.91
2018-04-24T06:41:50.570Z,88.62
2018-04-24T06:42:50.540Z,88.43
2018-04-24T06:43:50.537Z,88.43
2018-04-24T06:44:50.539Z,87.95
2018-04-24T06:45:50.538Z,87.00
2018-04-24T06:46:50.537Z,86.80
2018-04-24T06:47:50.610Z,86.61
2018-04-24T06:48:50.538Z,87.00
2018-04-24T06:49:50.541Z,86.90
2018-04-24T06:50:50.545Z,86.04
2018-04-24T06:51:50.590Z,86.23
2018-04-24T06:52:50.537Z,86.14
2018-04-24T06:53:50.540Z,86.43
2018-04-24T06:54:50.543Z,85.99
2018-04-24T06:55:50.542Z,85.80
2018-04-24T06:56:50.547Z,85.71
2018-04-24T06:57:50.542Z,85.13
2018-04-24T06:58:50.537Z,84.36
2018-04-24T06:59:50.541Z,83.50
2018-04-24T07:00:50.545Z,84.08
2018-04-24T07:01:50.540Z,84.17
2018-04-24T07:02:50.536Z,82.93
2018-04-24T07:03:50.540Z,82.49
2018-04-24T07:04:50.544Z,81.82
2018-04-24T07:05:50.540Z,81.44
2018-04-24T07:06:50.541Z,81.54
2018-04-24T07:07:50.545Z,81.44
2018-04-24T07:08:50.539Z,80.77
2018-04-24T07:09:50.537Z,81.10
2018-04-24T07:10:50.544Z,79.47
2018-04-24T07:11:50.541Z,79.18
2018-04-24T07:12:50.556Z,78.51
2018-04-24T07:13:50.544Z,78.51
2018-04-24T07:14:50.550Z,78.03
2018-04-24T07:15:50.546Z,77.55
2018-04-24T07:16:50.557Z,77.11
2018-04-24T07:17:50.544Z,77.21
2018-04-24T07:18:50.550Z,78.27
2018-04-24T07:19:50.551Z,78.07
2018-04-24T07:20:50.550Z,77.88
2018-04-24T07:21:50.557Z,77.02
2018-04-24T07:22:50.549Z,76.54
2018-04-24T07:23:50.576Z,76.35
2018-04-24T07:24:50.550Z,73.47
2018-04-24T07:25:50.555Z,72.42
2018-04-24T07:26:50.556Z,71.66
2018-04-24T07:27:50.555Z,71.08
2018-04-24T07:28:50.559Z,70.50
2018-04-24T07:29:50.561Z,70.21
2018-04-24T07:30:50.571Z,69.48
2018-04-24T07:31:50.567Z,69.39
2018-04-24T07:32:50.647Z,68.72
2018-04-24T07:33:50.576Z,68.52
2018-04-24T07:34:50.563Z,68.24
2018-04-24T07:35:50.567Z,67.76
2018-04-24T07:36:50.586Z,67.66
2018-04-24T07:37:50.590Z,67.32
2018-04-24T07:38:50.569Z,67.12
2018-04-24T07:39:50.571Z,67.22
2018-04-24T07:40:50.573Z,66.64
2018-04-24T07:41:50.580Z,66.83
2018-04-24T07:42:50.574Z,66.35
2018-04-24T07:43:50.582Z,66.16
2018-04-24T07:44:50.589Z,66.35
2018-04-24T07:45:50.934Z,66.16
2018-04-24T07:46:50.679Z,66.49
2018-04-24T07:47:50.583Z,66.45
2018-04-24T07:48:50.585Z,66.06
2018-04-24T07:49:50.589Z,66.35
2018-04-24T07:50:50.588Z,66.10
2018-04-24T07:51:50.591Z,66.77
2018-04-24T07:52:50.760Z,66.49
2018-04-24T07:53:50.594Z,66.29
2018-04-24T07:54:50.597Z,65.52
2018-04-24T07:55:50.597Z,65.52
2018-04-24T07:56:50.599Z,65.72
2018-04-24T07:57:50.734Z,65.81
2018-04-24T07:58:50.606Z,65.75
2018-04-24T07:59:50.612Z,63.70
2018-04-24T08:00:50.609Z,62.39
2018-04-24T08:01:50.610Z,61.43
2018-04-24T08:02:50.620Z,61.02
2018-04-24T08:03:50.620Z,61.05
2018-04-24T08:04:50.657Z,61.33
2018-04-24T08:05:51.223Z,60.47
2018-04-24T08:06:50.626Z,59.80
2018-04-24T08:07:50.626Z,59.12
2018-04-24T08:08:50.639Z,59.12
2018-04-24T08:09:50.636Z,58.84
2018-04-24T08:10:50.635Z,58.74
2018-04-24T08:11:50.635Z,58.17
2018-04-24T08:12:50.641Z,58.64
2018-04-24T08:13:50.642Z,58.55
2018-04-24T08:14:50.648Z,58.55
2018-04-24T08:15:50.643Z,58.64
2018-04-24T08:16:50.645Z,58.64
2018-04-24T08:17:50.650Z,58.74
2018-04-24T08:18:50.649Z,58.94
2018-04-24T08:19:50.663Z,59.12
2018-04-24T08:20:50.660Z,58.36
2018-04-24T08:21:50.672Z,58.74
2018-04-24T08:22:50.678Z,58.84
2018-04-24T08:23:50.662Z,58.84
2018-04-24T08:24:50.664Z,58.48
2018-04-24T08:25:50.671Z,57.23
2018-04-24T08:26:50.741Z,55.89
2018-04-24T08:27:50.671Z,55.69
2018-04-24T08:28:51.189Z,56.37
2018-04-24T08:29:50.677Z,56.66
2018-04-24T08:30:52.656Z,56.37
2018-04-24T08:31:50.681Z,56.46
2018-04-24T08:32:50.708Z,55.60
2018-04-24T08:33:50.690Z,54.93
2018-04-24T08:34:50.695Z,55.22
2018-04-24T08:35:50.692Z,54.64
2018-04-24T08:36:50.697Z,53.20
2018-04-24T08:37:50.700Z,53.30
2018-04-24T08:38:50.728Z,53.32
2018-04-24T08:39:50.710Z,53.23
2018-04-24T08:40:50.716Z,52.94
2018-04-24T08:41:50.718Z,51.79
2018-04-24T08:42:50.713Z,52.26
2018-04-24T08:43:50.716Z,51.40
2018-04-24T08:44:50.718Z,50.82
2018-04-24T08:45:50.724Z,50.46
2018-04-24T08:46:50.727Z,50.56
2018-04-24T08:47:50.738Z,50.66
2018-04-24T08:48:50.737Z,48.45
2018-04-24T08:49:50.736Z,47.49
2018-04-24T08:50:50.737Z,47.30
2018-04-24T08:51:50.740Z,47.39
2018-04-24T08:52:50.744Z,46.81
2018-04-24T08:53:50.765Z,46.62
2018-04-24T08:54:50.755Z,47.10
2018-04-24T08:55:50.753Z,46.62
2018-04-24T08:56:50.764Z,46.91
2018-04-24T08:57:50.765Z,47.13
2018-04-24T08:58:50.762Z,46.93
2018-04-24T08:59:51.572Z,46.19
2018-04-24T09:00:50.772Z,45.99
2018-04-24T09:01:50.773Z,45.25
2018-04-24T09:02:50.777Z,45.34
2018-04-24T09:03:50.782Z,44.11
2018-04-24T09:04:50.794Z,43.54
2018-04-24T09:05:50.790Z,43.54
2018-04-24T09:06:50.793Z,43.63
2018-04-24T09:07:50.810Z,42.86
2018-04-24T09:08:50.803Z,42.86
2018-04-24T09:09:50.807Z,43.61
2018-04-24T09:10:50.814Z,43.61
2018-04-24T09:11:50.818Z,44.74
2018-04-24T09:12:50.824Z,44.93
2018-04-24T09:13:50.823Z,45.90
2018-04-24T09:14:50.891Z,45.80
2018-04-24T09:15:50.844Z,45.20
2018-04-24T09:16:50.832Z,45.49
2018-04-24T09:17:50.836Z,45.68
2018-04-24T09:18:50.845Z,46.45
2018-04-24T09:19:50.846Z,46.26
2018-04-24T09:20:50.893Z,45.01
2018-04-24T09:21:50.857Z,45.68
2018-04-24T09:22:50.865Z,46.16
2018-04-24T09:23:50.879Z,46.45
2018-04-24T09:24:50.862Z,46.84
2018-04-24T09:25:50.868Z,45.78
2018-04-24T09:26:50.961Z,44.91
2018-04-24T09:27:50.873Z,45.32
2018-04-24T09:28:50.882Z,44.93
2018-04-24T09:29:50.879Z,44.43
2018-04-24T09:30:50.887Z,45.01
2018-04-24T09:31:50.888Z,45.10
2018-04-24T09:32:50.890Z,44.43
2018-04-24T09:33:50.928Z,43.57
2018-04-24T09:34:50.924Z,44.17
2018-04-24T09:35:50.921Z,43.76
2018-04-24T09:36:50.908Z,43.88
2018-04-24T09:37:50.920Z,44.26
2018-04-24T09:38:50.920Z,44.35
2018-04-24T09:39:50.919Z,43.01
2018-04-24T09:40:50.922Z,41.93
2018-04-24T09:41:50.926Z,42.05
2018-04-24T09:42:50.930Z,42.53
2018-04-24T09:43:50.980Z,43.01
2018-04-24T09:44:50.949Z,44.07
2018-04-24T09:45:51.025Z,43.85
2018-04-24T09:46:50.953Z,44.35
2018-04-24T09:47:50.954Z,44.17
2018-04-24T09:48:50.958Z,44.17
2018-04-24T09:49:50.958Z,44.55
2018-04-24T09:50:50.966Z,45.22
2018-04-24T09:51:51.135Z,45.22
2018-04-24T09:52:50.986Z,45.32
2018-04-24T09:53:50.978Z,45.13
2018-04-24T09:54:50.976Z,45.03
2018-04-24T09:55:50.978Z,44.55
2018-04-24T09:56:51.363Z,44.17
2018-04-24T09:57:50.989Z,44.38
2018-04-24T09:58:50.998Z,43.80
2018-04-24T09:59:50.998Z,43.90
2018-04-24T10:00:51.003Z,44.09
2018-04-24T10:01:51.006Z,44.28
2018-04-24T10:02:51.007Z,44.57
2018-04-24T10:03:51.008Z,44.19
2018-04-24T10:04:51.014Z,43.82
2018-04-24T10:05:51.015Z,43.82
2018-04-24T10:06:51.031Z,43.73
2018-04-24T10:07:51.082Z,43.44
2018-04-24T10:08:51.032Z,42.86
2018-04-24T10:09:51.114Z,42.47
2018-04-24T10:10:51.041Z,42.19
2018-04-24T10:11:51.043Z,42.67
2018-04-24T10:12:51.053Z,42.30
2018-04-24T10:13:51.056Z,42.40
2018-04-24T10:14:51.081Z,42.59
2018-04-24T10:15:52.705Z,42.21
2018-04-24T10:16:52.688Z,42.30
2018-04-24T10:17:51.094Z,42.49
2018-04-24T10:18:51.092Z,42.30
2018-04-24T10:19:52.715Z,42.30
2018-04-24T10:20:51.111Z,41.44
2018-04-24T10:21:51.088Z,41.44
2018-04-24T10:22:51.091Z,41.82
2018-04-24T10:23:52.692Z,41.63
2018-04-24T10:24:51.121Z,41.94
2018-04-24T10:25:51.119Z,41.94
2018-04-24T10:26:51.330Z,41.36
2018-04-24T10:27:51.142Z,42.32
2018-04-24T10:28:51.116Z,42.71
2018-04-24T10:29:51.128Z,42.32
2018-04-24T10:30:51.147Z,42.23
2018-04-24T10:31:51.416Z,42.13
2018-04-24T10:32:51.150Z,41.75
2018-04-24T10:33:51.146Z,42.71
2018-04-24T10:34:51.148Z,42.42
2018-04-24T10:35:51.152Z,42.42
2018-04-24T10:36:51.155Z,42.32
2018-04-24T10:37:51.161Z,42.32
2018-04-24T10:38:51.172Z,42.42
2018-04-24T10:39:51.186Z,41.84
2018-04-24T10:40:51.184Z,41.27
2018-04-24T10:41:51.223Z,41.55
2018-04-24T10:42:51.194Z,41.46
2018-04-24T10:43:51.274Z,41.36
2018-04-24T10:44:51.204Z,41.46
2018-04-24T10:45:51.200Z,41.17
2018-04-24T10:46:51.207Z,40.49
2018-04-24T10:47:51.212Z,39.91
2018-04-24T10:48:51.227Z,40.11
2018-04-24T10:49:51.223Z,40.69
2018-04-24T10:50:51.229Z,40.20
2018-04-24T10:51:51.390Z,39.72
2018-04-24T10:52:51.294Z,39.82
2018-04-24T10:53:51.241Z,40.11
2018-04-24T10:54:51.371Z,39.72
2018-04-24T10:55:51.256Z,39.53
2018-04-24T10:56:51.260Z,39.82
2018-04-24T10:57:51.279Z,39.62
2018-04-24T10:58:51.276Z,39.53
2018-04-24T10:59:51.281Z,39.72
2018-04-24T11:00:51.282Z,39.43
2018-04-24T11:01:51.286Z,39.53
2018-04-24T11:02:51.312Z,39.14
2018-04-24T11:03:51.343Z,39.14
2018-04-24T11:04:51.317Z,39.82
2018-04-24T11:05:51.420Z,39.82
2018-04-24T11:06:51.365Z,40.30
2018-04-24T11:07:51.400Z,39.53
2018-04-24T11:08:51.391Z,39.91
2018-04-24T11:09:51.377Z,39.62
2018-04-24T11:10:51.389Z,39.62
2018-04-24T11:11:51.422Z,39.54
2018-04-24T11:12:51.349Z,39.34
2018-04-24T11:13:51.393Z,39.74
2018-04-24T11:14:51.362Z,39.53
2018-04-24T11:15:51.388Z,39.45
2018-04-24T11:16:51.377Z,38.49
2018-04-24T11:17:51.390Z,38.37
2018-04-24T11:18:51.433Z,38.20
2018-04-24T11:19:51.429Z,38.37
2018-04-24T11:20:51.424Z,38.29
2018-04-24T11:21:51.419Z,38.49
2018-04-24T11:22:51.438Z,38.68
2018-04-24T11:23:51.439Z,40.01
2018-04-24T11:24:51.427Z,40.78
2018-04-24T11:25:51.497Z,41.19
2018-04-24T11:26:51.453Z,40.90
2018-04-24T11:27:51.447Z,41.67
2018-04-24T11:28:51.436Z,41.77
2018-04-24T11:29:51.429Z,41.77
2018-04-24T11:30:51.431Z,41.57
2018-04-24T11:31:51.439Z,41.67
2018-04-24T11:32:51.454Z,41.09
2018-04-24T11:33:51.566Z,40.80
2018-04-24T11:34:51.448Z,40.61
2018-04-24T11:35:51.515Z,40.70
2018-04-24T11:36:51.465Z,39.74
2018-04-24T11:37:51.468Z,40.12
2018-04-24T11:38:51.474Z,40.22
2018-04-24T11:39:51.478Z,40.32
2018-04-24T11:40:51.482Z,40.32
2018-04-24T11:41:51.501Z,40.32
2018-04-24T11:42:51.491Z,39.94
2018-04-24T11:43:51.511Z,39.64
2018-04-24T11:44:51.503Z,39.94
2018-04-24T11:45:51.509Z,39.16
2018-04-24T11:46:51.511Z,39.54
2018-04-24T11:47:51.535Z,39.54
2018-04-24T11:48:51.524Z,39.06
2018-04-24T11:49:51.527Z,39.26
2018-04-24T11:50:51.534Z,39.36
2018-04-24T11:51:51.541Z,39.09
2018-04-24T11:52:51.543Z,39.95
2018-04-24T11:53:51.548Z,39.18
2018-04-24T11:54:51.562Z,39.76
2018-04-24T11:55:51.559Z,39.94
2018-04-24T11:56:51.588Z,39.76
2018-04-24T11:57:51.573Z,40.05
2018-04-24T11:58:51.580Z,39.84
2018-04-24T11:59:51.582Z,39.84
2018-04-24T12:00:51.594Z,39.84
2018-04-24T12:01:51.613Z,39.84
2018-04-24T12:02:51.609Z,39.84
2018-04-24T12:03:51.727Z,40.03
2018-04-24T12:04:52.032Z,40.70
2018-04-24T12:05:51.611Z,40.88
2018-04-24T12:06:51.616Z,40.90
2018-04-24T12:07:51.624Z,41.09
2018-04-24T12:08:51.660Z,41.28
2018-04-24T12:09:51.633Z,41.28
2018-04-24T12:10:51.714Z,41.57
2018-04-24T12:11:51.643Z,41.46
2018-04-24T12:12:52.070Z,41.46
2018-04-24T12:13:51.651Z,41.75
2018-04-24T12:14:51.702Z,42.23
2018-04-24T12:15:51.666Z,42.42
2018-04-24T12:16:51.668Z,41.27
2018-04-24T12:17:51.671Z,39.82
2018-04-24T12:18:51.676Z,40.20
2018-04-24T12:19:51.714Z,39.62
2018-04-24T12:20:51.689Z,40.01
2018-04-24T12:21:51.693Z,39.62
2018-04-24T12:22:51.694Z,39.62
2018-04-24T12:23:51.706Z,39.54
2018-04-24T12:24:51.708Z,39.82
2018-04-24T12:25:51.714Z,39.45
2018-04-24T12:26:51.717Z,39.04
2018-04-24T12:27:51.729Z,39.04
2018-04-24T12:28:51.728Z,39.34
2018-04-24T12:29:51.732Z,39.62
2018-04-24T12:30:51.748Z,39.62
2018-04-24T12:31:51.742Z,39.62
2018-04-24T12:32:51.841Z,40.49
2018-04-24T12:33:51.838Z,40.20
2018-04-24T12:34:51.786Z,39.91
2018-04-24T12:35:52.452Z,40.20
2018-04-24T12:36:51.766Z,40.11
2018-04-24T12:37:51.778Z,40.20
2018-04-24T12:38:51.869Z,40.20
2018-04-24T12:39:51.784Z,40.20
2018-04-24T12:40:51.789Z,40.20
2018-04-24T12:41:51.799Z,40.30
2018-04-24T12:42:51.803Z,40.69
2018-04-24T12:43:51.812Z,40.97
2018-04-24T12:44:51.806Z,40.69
2018-04-24T12:45:51.810Z,40.97
2018-04-24T12:46:51.829Z,40.97
2018-04-24T12:47:51.822Z,40.88
2018-04-24T12:48:51.827Z,40.97
2018-04-24T12:49:51.830Z,40.97
2018-04-24T12:50:51.843Z,41.17
2018-04-24T12:51:51.940Z,40.97
2018-04-24T12:52:51.845Z,40.69